createdAt,value
2017-10-17T00:00:56.379Z,63.1
2017-10-17T00:01:58.203Z,63.2
2017-10-17T00:03:00.367Z,63.1
2017-10-17T00:04:02.204Z,63.1
2017-10-17T00:05:03.700Z,63.1
2017-10-17T00:06:05.519Z,63.1
2017-10-17T00:07:06.652Z,63.1
2017-10-17T00:08:08.472Z,63.1
2017-10-17T00:09:09.608Z,63.2
2017-10-17T00:10:11.409Z,63.1
2017-10-17T00:11:12.863Z,63.1
2017-10-17T00:12:14.321Z,63.1
2017-10-17T00:13:16.142Z,63.2
2017-10-17T00:14:17.944Z,63.2
2017-10-17T00:15:19.763Z,63.1
2017-10-17T00:16:21.277Z,63.2
2017-10-17T00:17:23.440Z,63.1
2017-10-17T00:18:25.606Z,63
2017-10-17T00:19:27.435Z,63.1
2017-10-17T00:20:29.248Z,63.1
2017-10-17T00:21:31.417Z,63.1
2017-10-17T00:22:33.234Z,63.1
2017-10-17T00:23:34.710Z,63.2
2017-10-17T00:24:36.511Z,63.1
2017-10-17T00:25:37.964Z,63.2
2017-10-17T00:26:40.127Z,63.1
2017-10-17T00:27:41.945Z,63.1
2017-10-17T00:28:42.710Z,63.1
2017-10-17T00:29:44.877Z,63.1
2017-10-17T00:30:47.040Z,63.1
2017-10-17T00:31:48.862Z,63.1
2017-10-17T00:32:50.681Z,63.2
2017-10-17T00:33:52.159Z,63.1
2017-10-17T00:34:53.978Z,63
2017-10-17T00:35:55.797Z,63.2
2017-10-17T00:36:57.256Z,63.1
2017-10-17T00:37:59.076Z,63.1
2017-10-17T00:39:00.552Z,63
2017-10-17T00:40:02.369Z,63.1
2017-10-17T00:41:04.533Z,63
2017-10-17T00:42:06.354Z,63
2017-10-17T00:43:08.527Z,63
2017-10-17T00:44:10.696Z,63
2017-10-17T00:45:12.167Z,63
2017-10-17T00:46:13.983Z,63.1
2017-10-17T00:47:16.150Z,63.1
2017-10-17T00:48:18.312Z,63
2017-10-17T00:49:20.129Z,62.9
2017-10-17T00:50:21.604Z,63
2017-10-17T00:51:23.805Z,63
2017-10-17T00:52:25.604Z,62.8
2017-10-17T00:53:27.421Z,62.8
2017-10-17T00:54:29.585Z,63
2017-10-17T00:55:31.058Z,63
2017-10-17T00:56:32.878Z,62.9
2017-10-17T00:57:34.707Z,63
2017-10-17T00:58:36.870Z,63
2017-10-17T00:59:38.694Z,62.9
2017-10-17T01:00:40.525Z,62.9
2017-10-17T01:01:42.687Z,62.9
2017-10-17T01:02:44.164Z,62.9
2017-10-17T01:03:45.981Z,63
2017-10-17T01:04:48.144Z,63
2017-10-17T01:05:49.965Z,62.9
2017-10-17T01:06:51.796Z,62.9
2017-10-17T01:07:53.251Z,62.9
2017-10-17T01:08:54.755Z,63
2017-10-17T01:09:56.609Z,62.9
2017-10-17T01:10:58.058Z,62.8
2017-10-17T01:11:59.855Z,63
2017-10-17T01:13:01.673Z,62.8
2017-10-17T01:14:03.835Z,62.7
2017-10-17T01:15:05.288Z,62.7
2017-10-17T01:16:06.764Z,62.9
2017-10-17T01:17:08.925Z,62.9
2017-10-17T01:18:11.088Z,62.9
2017-10-17T01:19:12.540Z,62.9
2017-10-17T01:20:14.011Z,62.8
2017-10-17T01:21:15.486Z,62.9
2017-10-17T01:22:17.283Z,62.9
2017-10-17T01:23:19.448Z,62.8
2017-10-17T01:24:21.610Z,62.9
2017-10-17T01:25:23.085Z,62.9
2017-10-17T01:26:24.915Z,62.8
2017-10-17T01:27:26.381Z,62.9
2017-10-17T01:28:27.855Z,62.8
2017-10-17T01:29:29.676Z,63
2017-10-17T01:30:31.839Z,62.8
2017-10-17T01:31:34.001Z,62.6
2017-10-17T01:32:35.106Z,62.7
2017-10-17T01:33:36.927Z,62.8
2017-10-17T01:34:38.744Z,62.6
2017-10-17T01:35:40.624Z,62.7
2017-10-17T01:36:42.465Z,62.6
2017-10-17T01:37:44.264Z,62.8
2017-10-17T01:38:46.118Z,62.7
2017-10-17T01:39:47.223Z,62.6
2017-10-17T01:40:49.384Z,62.8
2017-10-17T01:41:50.515Z,62.8
2017-10-17T01:42:52.685Z,62.5
2017-10-17T01:43:54.848Z,62.6
2017-10-17T01:44:56.665Z,62.5
2017-10-17T01:45:58.118Z,62.6
2017-10-17T01:46:59.590Z,62.6
2017-10-17T01:48:01.041Z,62.5
2017-10-17T01:49:02.516Z,62.6
2017-10-17T01:50:04.679Z,62.6
2017-10-17T01:51:06.509Z,62.6
2017-10-17T01:52:08.671Z,62.5
2017-10-17T01:53:10.841Z,62.6
2017-10-17T01:54:13.005Z,62.7
2017-10-17T01:55:14.481Z,62.3
2017-10-17T01:56:16.296Z,62.3
2017-10-17T01:57:18.095Z,62.5
2017-10-17T01:58:20.256Z,62.7
2017-10-17T01:59:22.054Z,62.3
2017-10-17T02:00:23.873Z,62.6
2017-10-17T02:01:25.671Z,62.7
2017-10-17T02:02:27.147Z,62.5
2017-10-17T02:03:28.965Z,62.4
2017-10-17T02:04:30.439Z,62.4
2017-10-17T02:05:32.257Z,62.4
2017-10-17T02:06:34.054Z,62.7
2017-10-17T02:07:35.509Z,62.5
2017-10-17T02:08:37.344Z,62.4
2017-10-17T02:09:39.152Z,62.4
2017-10-17T02:10:40.603Z,62.5
2017-10-17T02:11:42.076Z,62.7
2017-10-17T02:12:43.550Z,62.6
2017-10-17T02:13:45.712Z,62.9
2017-10-17T02:14:47.874Z,62.7
2017-10-17T02:15:49.327Z,62.6
2017-10-17T02:16:50.780Z,62.7
2017-10-17T02:17:51.893Z,62.6
2017-10-17T02:18:53.720Z,62.8
2017-10-17T02:19:55.193Z,62.6
2017-10-17T02:20:56.648Z,62.8
2017-10-17T02:21:58.463Z,62.9
2017-10-17T02:23:00.643Z,62.7
2017-10-17T02:24:02.089Z,62.6
2017-10-17T02:25:03.542Z,62.9
2017-10-17T02:26:05.340Z,62.8
2017-10-17T02:27:06.812Z,62.2
2017-10-17T02:28:08.631Z,62.6
2017-10-17T02:29:10.447Z,62.6
2017-10-17T02:30:11.557Z,62.7
2017-10-17T02:31:13.352Z,62.7
2017-10-17T02:32:15.518Z,62.7
2017-10-17T02:33:17.338Z,62.7
2017-10-17T02:34:19.154Z,62.8
2017-10-17T02:35:20.604Z,62.7
2017-10-17T02:36:22.423Z,62.8
2017-10-17T02:37:24.590Z,62.6
2017-10-17T02:38:26.427Z,62.6
2017-10-17T02:39:28.610Z,62.6
2017-10-17T02:40:30.767Z,62.7
2017-10-17T02:41:32.586Z,62.6
2017-10-17T02:42:34.767Z,62.7
2017-10-17T02:43:36.624Z,62.6
2017-10-17T02:44:38.786Z,62.7
2017-10-17T02:45:40.582Z,62.6
2017-10-17T02:46:42.402Z,62.6
2017-10-17T02:47:44.219Z,62.6
2017-10-17T02:48:46.384Z,62.5
2017-10-17T02:49:48.200Z,62.6
2017-10-17T02:50:50.361Z,62.6
2017-10-17T02:51:52.158Z,62.4
2017-10-17T02:52:53.975Z,62.7
2017-10-17T02:53:55.795Z,62.6
2017-10-17T02:54:57.268Z,62.6
2017-10-17T02:55:58.397Z,62.6
2017-10-17T02:56:59.890Z,62.6
2017-10-17T02:58:01.715Z,62.6
2017-10-17T02:59:03.872Z,62.4
2017-10-17T03:00:05.689Z,62.4
2017-10-17T03:01:07.490Z,62.5
2017-10-17T03:02:09.314Z,62.5
2017-10-17T03:03:11.135Z,62.6
2017-10-17T03:04:13.294Z,62.5
2017-10-17T03:05:15.091Z,62.4
2017-10-17T03:06:16.888Z,62.4
2017-10-17T03:07:18.707Z,62.5
2017-10-17T03:08:20.867Z,62.4
2017-10-17T03:09:22.694Z,62.8
2017-10-17T03:10:24.857Z,62.5
2017-10-17T03:11:26.674Z,62.5
2017-10-17T03:12:28.834Z,62.4
2017-10-17T03:13:29.944Z,62.4
2017-10-17T03:14:32.112Z,62.5
2017-10-17T03:15:34.268Z,62.5
2017-10-17T03:16:35.378Z,62.5
2017-10-17T03:17:36.833Z,62.4
2017-10-17T03:18:38.642Z,62.5
2017-10-17T03:19:40.460Z,62.5
2017-10-17T03:20:42.291Z,62.5
2017-10-17T03:21:44.452Z,62.5
2017-10-17T03:22:46.272Z,62.4
2017-10-17T03:23:48.435Z,62.4
2017-10-17T03:24:49.564Z,62.4
2017-10-17T03:25:51.383Z,62.3
2017-10-17T03:26:52.856Z,62.5
2017-10-17T03:27:54.673Z,62.4
2017-10-17T03:28:56.839Z,62.4
2017-10-17T03:29:58.652Z,62.4
2017-10-17T03:31:00.103Z,62.4
2017-10-17T03:32:01.920Z,62.5
2017-10-17T03:33:03.741Z,62.3
2017-10-17T03:34:04.875Z,62.4
2017-10-17T03:35:06.671Z,62.4
2017-10-17T03:36:08.834Z,62.4
2017-10-17T03:37:10.644Z,62.3
2017-10-17T03:38:11.755Z,62.5
2017-10-17T03:39:13.917Z,62.3
2017-10-17T03:40:15.394Z,62.4
2017-10-17T03:41:16.499Z,62.4
2017-10-17T03:42:17.975Z,62.3
2017-10-17T03:43:19.451Z,62.3
2017-10-17T03:44:21.269Z,62.4
2017-10-17T03:45:22.749Z,62.3
2017-10-17T03:46:24.586Z,62.3
2017-10-17T03:47:26.397Z,62.3
2017-10-17T03:48:28.559Z,62.4
2017-10-17T03:49:30.376Z,62.2
2017-10-17T03:50:31.829Z,62.4
2017-10-17T03:51:33.993Z,62.3
2017-10-17T03:52:35.813Z,62.2
2017-10-17T03:53:36.924Z,62.4
2017-10-17T03:54:38.721Z,62.1
2017-10-17T03:55:40.881Z,62.2
2017-10-17T03:56:42.699Z,62.1
2017-10-17T03:57:44.174Z,62.2
2017-10-17T03:58:46.335Z,62.1
2017-10-17T03:59:47.445Z,62.4
2017-10-17T04:00:49.243Z,62.2
2017-10-17T04:01:51.404Z,62.3
2017-10-17T04:02:53.565Z,62.2
2017-10-17T04:03:55.382Z,62.2
2017-10-17T04:04:57.545Z,62.3
2017-10-17T04:05:59.019Z,62.1
2017-10-17T04:07:00.824Z,62.2
2017-10-17T04:08:02.979Z,62
2017-10-17T04:09:04.774Z,62
2017-10-17T04:10:06.620Z,62.1
2017-10-17T04:11:08.417Z,62.2
2017-10-17T04:12:10.237Z,62.3
2017-10-17T04:13:11.711Z,62.1
2017-10-17T04:14:13.509Z,62.2
2017-10-17T04:15:14.983Z,62.3
2017-10-17T04:16:17.154Z,62.3
2017-10-17T04:17:18.604Z,62.2
2017-10-17T04:18:20.403Z,62.1
2017-10-17T04:19:21.853Z,62.2
2017-10-17T04:20:23.671Z,62.2
2017-10-17T04:21:24.778Z,62.2
2017-10-17T04:22:26.939Z,62.2
2017-10-17T04:23:28.414Z,62.1
2017-10-17T04:24:30.578Z,62.1
2017-10-17T04:25:32.397Z,61.8
2017-10-17T04:26:34.214Z,62.1
2017-10-17T04:27:36.376Z,61.8
2017-10-17T04:28:37.829Z,62
2017-10-17T04:29:39.308Z,61.8
2017-10-17T04:30:41.462Z,62
2017-10-17T04:31:43.280Z,62
2017-10-17T04:32:45.075Z,61.9
2017-10-17T04:33:46.896Z,62
2017-10-17T04:34:48.713Z,61.9
2017-10-17T04:35:50.539Z,61.8
2017-10-17T04:36:52.403Z,61.7
2017-10-17T04:37:53.894Z,62
2017-10-17T04:38:55.713Z,61.8
2017-10-17T04:39:57.533Z,61.8
2017-10-17T04:40:59.362Z,61.8
2017-10-17T04:42:01.184Z,61.7
2017-10-17T04:43:03.002Z,61.9
2017-10-17T04:44:05.162Z,61.7
2017-10-17T04:45:06.980Z,61.8
2017-10-17T04:46:09.148Z,61.9
2017-10-17T04:47:10.962Z,61.7
2017-10-17T04:48:13.123Z,61.7
2017-10-17T04:49:14.942Z,61.8
2017-10-17T04:50:16.737Z,61.9
2017-10-17T04:51:17.845Z,61.6
2017-10-17T04:52:19.663Z,61.5
2017-10-17T04:53:21.481Z,61.7
2017-10-17T04:54:23.303Z,61.4
2017-10-17T04:55:24.780Z,61.5
2017-10-17T04:56:26.943Z,61.6
2017-10-17T04:57:29.109Z,61.8
2017-10-17T04:58:30.906Z,61.6
2017-10-17T04:59:33.069Z,61.6
2017-10-17T05:00:35.231Z,61.4
2017-10-17T05:01:37.393Z,61.3
2017-10-17T05:02:39.197Z,61.1
2017-10-17T05:03:41.358Z,61.2
2017-10-17T05:04:43.176Z,61.2
2017-10-17T05:05:44.634Z,61.3
2017-10-17T05:06:46.811Z,61.3
2017-10-17T05:07:48.633Z,61.4
2017-10-17T05:08:50.428Z,61.2
2017-10-17T05:09:52.591Z,61.5
2017-10-17T05:10:54.754Z,61.4
2017-10-17T05:11:56.205Z,61.4
2017-10-17T05:12:58.024Z,61.3
2017-10-17T05:13:59.490Z,61.2
2017-10-17T05:15:01.008Z,61.4
2017-10-17T05:16:02.462Z,61.4
2017-10-17T05:17:04.625Z,61.5
2017-10-17T05:18:06.788Z,61.5
2017-10-17T05:19:07.894Z,61.3
2017-10-17T05:20:09.007Z,61.4
2017-10-17T05:21:10.461Z,61.2
2017-10-17T05:22:11.934Z,61.2
2017-10-17T05:23:14.094Z,61.4
2017-10-17T05:24:15.568Z,61.1
2017-10-17T05:25:17.390Z,61.5
2017-10-17T05:26:19.213Z,61.2
2017-10-17T05:27:20.320Z,61.2
2017-10-17T05:28:22.139Z,61.2
2017-10-17T05:29:23.958Z,61.1
2017-10-17T05:30:25.436Z,61.4
2017-10-17T05:31:27.234Z,61.3
2017-10-17T05:32:29.395Z,61
2017-10-17T05:33:31.571Z,61.1
2017-10-17T05:34:33.386Z,61.2
2017-10-17T05:35:35.182Z,61.2
2017-10-17T05:36:37.003Z,61.3
2017-10-17T05:37:38.828Z,61
2017-10-17T05:38:39.933Z,61.2
2017-10-17T05:39:41.752Z,61.1
2017-10-17T05:40:43.226Z,61.2
2017-10-17T05:41:45.395Z,61.1
2017-10-17T05:42:46.851Z,61.2
2017-10-17T05:43:48.670Z,61.2
2017-10-17T05:44:50.834Z,61.2
2017-10-17T05:45:52.632Z,61.2
2017-10-17T05:46:54.467Z,60.9
2017-10-17T05:47:56.269Z,61
2017-10-17T05:48:58.435Z,61.2
2017-10-17T05:50:00.621Z,61.1
2017-10-17T05:51:02.439Z,61
2017-10-17T05:52:04.235Z,61.1
2017-10-17T05:53:06.052Z,61
2017-10-17T05:54:08.244Z,61
2017-10-17T05:55:10.063Z,61.2
2017-10-17T05:56:11.883Z,61.1
2017-10-17T05:57:13.344Z,61.1
2017-10-17T05:58:15.164Z,61.2
2017-10-17T05:59:16.987Z,61.1
2017-10-17T06:00:18.808Z,61
2017-10-17T06:01:20.971Z,61.1
2017-10-17T06:02:22.791Z,61.1
2017-10-17T06:03:24.609Z,61.1
2017-10-17T06:04:26.152Z,61.2
2017-10-17T06:05:28.100Z,61
2017-10-17T06:06:29.554Z,61.2
2017-10-17T06:07:31.035Z,61.2
2017-10-17T06:08:32.510Z,61.2
2017-10-17T06:09:34.313Z,61.1
2017-10-17T06:10:36.409Z,61.2
2017-10-17T06:11:38.062Z,61.2
2017-10-17T06:12:39.888Z,61
2017-10-17T06:13:42.051Z,61.2
2017-10-17T06:14:44.216Z,61.2
2017-10-17T06:15:46.033Z,61.1
2017-10-17T06:16:47.510Z,61.2
2017-10-17T06:17:48.968Z,61.2
2017-10-17T06:18:50.448Z,61
2017-10-17T06:19:51.901Z,61.1
2017-10-17T06:20:54.063Z,61.1
2017-10-17T06:21:55.880Z,61.1
2017-10-17T06:22:57.703Z,61.1
2017-10-17T06:23:59.500Z,61.1
2017-10-17T06:25:00.950Z,61.3
2017-10-17T06:26:03.125Z,61.2
2017-10-17T06:27:03.891Z,61.2
2017-10-17T06:28:05.365Z,61
2017-10-17T06:29:07.530Z,61.2
2017-10-17T06:30:09.711Z,61.3
2017-10-17T06:31:11.508Z,61.2
2017-10-17T06:32:13.306Z,61.1
2017-10-17T06:33:14.765Z,61.2
2017-10-17T06:34:16.926Z,61.1
2017-10-17T06:35:18.401Z,61
2017-10-17T06:36:19.528Z,61.1
2017-10-17T06:37:21.685Z,61.2
2017-10-17T06:38:22.795Z,61.2
2017-10-17T06:39:24.620Z,61.1
2017-10-17T06:40:26.195Z,61.1
2017-10-17T06:41:28.359Z,61.1
2017-10-17T06:42:30.523Z,61.2
2017-10-17T06:43:32.348Z,61.1
2017-10-17T06:44:34.534Z,61.1
2017-10-17T06:45:36.351Z,61.1
2017-10-17T06:46:38.170Z,61
2017-10-17T06:47:39.971Z,61.1
2017-10-17T06:48:41.437Z,61.2
2017-10-17T06:49:43.297Z,61.2
2017-10-17T06:50:45.119Z,61.2
2017-10-17T06:51:47.281Z,61.2
2017-10-17T06:52:49.447Z,61.2
2017-10-17T06:53:51.265Z,61.2
2017-10-17T06:54:53.084Z,61
2017-10-17T06:55:54.904Z,61.2
2017-10-17T06:56:56.725Z,61.2
2017-10-17T06:57:58.181Z,61.1
2017-10-17T06:59:00.346Z,61.2
2017-10-17T07:00:01.819Z,61
2017-10-17T07:01:03.642Z,61.2
2017-10-17T07:02:05.810Z,61.4
2017-10-17T07:03:07.967Z,61.1
2017-10-17T07:04:10.129Z,61.2
2017-10-17T07:05:10.899Z,61.2
2017-10-17T07:06:13.062Z,61.1
2017-10-17T07:07:15.223Z,61.2
2017-10-17T07:08:16.333Z,61.1
2017-10-17T07:09:18.133Z,61.2
2017-10-17T07:10:19.933Z,61.1
2017-10-17T07:11:21.732Z,61.2
2017-10-17T07:12:23.207Z,61.1
2017-10-17T07:13:24.663Z,61.2
2017-10-17T07:14:25.771Z,61.1
2017-10-17T07:15:27.936Z,61.1
2017-10-17T07:16:29.755Z,61.2
2017-10-17T07:17:31.557Z,61.2
2017-10-17T07:18:32.667Z,61.2
2017-10-17T07:19:34.151Z,61
2017-10-17T07:20:35.689Z,61
2017-10-17T07:21:37.852Z,61.1
2017-10-17T07:22:40.012Z,61.1
2017-10-17T07:23:41.487Z,61
2017-10-17T07:24:43.654Z,60.7
2017-10-17T07:25:45.474Z,61.1
2017-10-17T07:26:47.289Z,61
2017-10-17T07:27:49.453Z,60.8
2017-10-17T07:28:51.626Z,60.8
2017-10-17T07:29:53.791Z,60.7
2017-10-17T07:30:55.608Z,61
2017-10-17T07:31:57.063Z,60.9
2017-10-17T07:32:58.513Z,60.8
2017-10-17T07:34:00.318Z,60.7
2017-10-17T07:35:02.499Z,60.8
2017-10-17T07:36:04.319Z,60.8
2017-10-17T07:37:05.430Z,60.9
2017-10-17T07:38:07.232Z,60.8
2017-10-17T07:39:08.342Z,60.7
2017-10-17T07:40:10.161Z,60.6
2017-10-17T07:41:11.653Z,61
2017-10-17T07:42:13.113Z,60.7
2017-10-17T07:43:15.278Z,60.7
2017-10-17T07:44:17.098Z,60.6
2017-10-17T07:45:19.323Z,60.8
2017-10-17T07:46:21.121Z,60.7
2017-10-17T07:47:22.600Z,60.4
2017-10-17T07:48:24.075Z,60.8
2017-10-17T07:49:26.235Z,60.8
2017-10-17T07:50:27.347Z,60.8
2017-10-17T07:51:28.114Z,60.6
2017-10-17T07:52:30.275Z,60.8
2017-10-17T07:53:32.095Z,60.7
2017-10-17T07:54:33.594Z,60.6
2017-10-17T07:55:35.065Z,60.7
2017-10-17T07:56:37.228Z,60.9
2017-10-17T07:57:39.392Z,60.9
2017-10-17T07:58:41.211Z,60.7
2017-10-17T07:59:42.691Z,60.6
2017-10-17T08:00:44.510Z,60.7
2017-10-17T08:01:46.309Z,61
2017-10-17T08:02:48.136Z,60.8
2017-10-17T08:03:50.301Z,60.9
2017-10-17T08:04:52.115Z,60.8
2017-10-17T08:05:54.277Z,60.8
2017-10-17T08:06:56.142Z,60.9
2017-10-17T08:07:58.306Z,60.8
2017-10-17T08:09:00.180Z,60.8
2017-10-17T08:10:02.448Z,60.8
2017-10-17T08:11:03.905Z,60.8
2017-10-17T08:12:06.061Z,60.8
2017-10-17T08:13:07.171Z,60.7
2017-10-17T08:14:08.649Z,60.7
2017-10-17T08:15:10.812Z,60.8
2017-10-17T08:16:12.265Z,60.7
2017-10-17T08:17:13.718Z,60.6
2017-10-17T08:18:15.538Z,60.6
2017-10-17T08:19:17.701Z,60.7
2017-10-17T08:20:19.522Z,60.6
2017-10-17T08:21:21.341Z,60.6
2017-10-17T08:22:23.160Z,60.8
2017-10-17T08:23:25.325Z,60.7
2017-10-17T08:24:27.488Z,61.1
2017-10-17T08:25:29.653Z,60.6
2017-10-17T08:26:31.108Z,60.5
2017-10-17T08:27:33.275Z,61
2017-10-17T08:28:35.094Z,60.8
2017-10-17T08:29:36.916Z,60.5
2017-10-17T08:30:38.713Z,60.7
2017-10-17T08:31:40.876Z,60.6
2017-10-17T08:32:43.040Z,60.7
2017-10-17T08:33:45.205Z,61.2
2017-10-17T08:34:46.678Z,60.6
2017-10-17T08:35:48.497Z,61.1
2017-10-17T08:36:50.317Z,60.9
2017-10-17T08:37:52.482Z,61
2017-10-17T08:38:54.643Z,60.6
2017-10-17T08:39:56.463Z,60.3
2017-10-17T08:40:58.340Z,60.5
2017-10-17T08:42:00.507Z,60.4
2017-10-17T08:43:02.671Z,60.3
2017-10-17T08:44:04.469Z,60.6
2017-10-17T08:45:06.288Z,60.4
2017-10-17T08:46:08.108Z,60.4
2017-10-17T08:47:09.583Z,60.5
2017-10-17T08:48:11.752Z,60.4
2017-10-17T08:49:13.579Z,60.4
2017-10-17T08:50:15.061Z,60.8
2017-10-17T08:51:16.897Z,60.4
2017-10-17T08:52:18.715Z,60.8
2017-10-17T08:53:20.589Z,60.4
2017-10-17T08:54:22.753Z,60.4
2017-10-17T08:55:24.918Z,60.7
2017-10-17T08:56:27.091Z,60.7
2017-10-17T08:57:28.916Z,60.4
2017-10-17T08:58:30.050Z,61
2017-10-17T08:59:31.545Z,61
2017-10-17T09:00:33.363Z,61
2017-10-17T09:01:34.840Z,60.3
2017-10-17T09:02:36.678Z,60.4
2017-10-17T09:03:38.483Z,61.1
2017-10-17T09:04:39.959Z,61.1
2017-10-17T09:05:41.414Z,61.1
2017-10-17T09:06:43.262Z,61.1
2017-10-17T09:07:45.064Z,60.7
2017-10-17T09:08:46.865Z,60.6
2017-10-17T09:09:48.685Z,60.8
2017-10-17T09:10:50.163Z,60.5
2017-10-17T09:11:51.965Z,60.7
2017-10-17T09:12:54.130Z,60.6
2017-10-17T09:13:55.583Z,60.4
2017-10-17T09:14:57.039Z,60.5
2017-10-17T09:15:59.204Z,60.5
2017-10-17T09:17:01.007Z,60.5
2017-10-17T09:18:02.827Z,60.3
2017-10-17T09:19:04.997Z,60.4
2017-10-17T09:20:06.820Z,60.3
2017-10-17T09:21:08.640Z,60.4
2017-10-17T09:22:10.513Z,60.4
2017-10-17T09:23:12.679Z,60.3
2017-10-17T09:24:13.798Z,60.4
2017-10-17T09:25:15.964Z,60.4
2017-10-17T09:26:18.134Z,60.4
2017-10-17T09:27:19.581Z,60.4
2017-10-17T09:28:21.037Z,60.4
2017-10-17T09:29:22.863Z,60.4
2017-10-17T09:30:25.040Z,60.4
2017-10-17T09:31:27.192Z,60.4
2017-10-17T09:32:28.304Z,60.4
2017-10-17T09:33:30.493Z,60.5
2017-10-17T09:34:32.345Z,60.5
2017-10-17T09:35:33.839Z,60.5
2017-10-17T09:36:35.642Z,60.3
2017-10-17T09:37:37.446Z,60.3
2017-10-17T09:38:39.265Z,60.3
2017-10-17T09:39:41.090Z,60.3
2017-10-17T09:40:43.258Z,60.2
2017-10-17T09:41:44.760Z,60.4
2017-10-17T09:42:46.562Z,60.4
2017-10-17T09:43:48.385Z,60.3
2017-10-17T09:44:50.546Z,60.5
2017-10-17T09:45:52.714Z,60.4
2017-10-17T09:46:54.514Z,60.5
2017-10-17T09:47:55.996Z,60.4
2017-10-17T09:48:57.836Z,60.1
2017-10-17T09:50:00.017Z,60.4
2017-10-17T09:51:01.842Z,60.4
2017-10-17T09:52:03.661Z,60.4
2017-10-17T09:53:04.807Z,60.4
2017-10-17T09:54:06.975Z,60.4
2017-10-17T09:55:09.138Z,60.4
2017-10-17T09:56:10.253Z,60.4
2017-10-17T09:57:11.756Z,60.4
2017-10-17T09:58:13.258Z,60.4
2017-10-17T09:59:14.735Z,60.4
2017-10-17T10:00:16.563Z,60.4
2017-10-17T10:01:18.040Z,60.5
2017-10-17T10:02:19.958Z,60.4
2017-10-17T10:03:21.781Z,60.4
2017-10-17T10:04:23.604Z,60.4
2017-10-17T10:05:25.424Z,60.4
2017-10-17T10:06:27.590Z,60.5
2017-10-17T10:07:29.414Z,60.4
2017-10-17T10:08:31.213Z,60.4
2017-10-17T10:09:33.014Z,60.4
2017-10-17T10:10:34.834Z,60.4
2017-10-17T10:11:36.654Z,60.4
2017-10-17T10:12:38.495Z,60.4
2017-10-17T10:13:39.616Z,60.3
2017-10-17T10:14:41.431Z,60.4
2017-10-17T10:15:43.228Z,60.3
2017-10-17T10:16:45.392Z,60.3
2017-10-17T10:17:46.502Z,60.4
2017-10-17T10:18:48.306Z,60.4
2017-10-17T10:19:49.445Z,60.4
2017-10-17T10:20:51.608Z,60.3
2017-10-17T10:21:53.085Z,60.4
2017-10-17T10:22:55.253Z,60.4
2017-10-17T10:23:56.710Z,60.3
2017-10-17T10:24:58.871Z,60.5
2017-10-17T10:26:01.035Z,60.5
2017-10-17T10:27:03.210Z,60.4
2017-10-17T10:28:05.028Z,60.4
2017-10-17T10:29:06.480Z,60.3
2017-10-17T10:30:08.349Z,60.2
2017-10-17T10:31:09.862Z,60.2
2017-10-17T10:32:12.053Z,60.5
2017-10-17T10:33:13.508Z,60.4
2017-10-17T10:34:14.990Z,60.3
2017-10-17T10:35:16.808Z,60.3
2017-10-17T10:36:19.035Z,60.4
2017-10-17T10:37:20.919Z,60.3
2017-10-17T10:38:23.078Z,60.2
2017-10-17T10:39:25.243Z,60.1
2017-10-17T10:40:27.451Z,60.2
2017-10-17T10:41:29.255Z,60.2
2017-10-17T10:42:30.726Z,60.3
2017-10-17T10:43:32.214Z,60.3
2017-10-17T10:44:34.019Z,60
2017-10-17T10:45:36.185Z,60.2
2017-10-17T10:46:38.354Z,60.2
2017-10-17T10:47:40.515Z,60.2
2017-10-17T10:48:42.339Z,60.2
2017-10-17T10:49:44.507Z,60
2017-10-17T10:50:46.670Z,60
2017-10-17T10:51:48.146Z,60
2017-10-17T10:52:48.913Z,60
2017-10-17T10:53:50.736Z,60
2017-10-17T10:54:52.201Z,60
2017-10-17T10:55:53.319Z,60.1
2017-10-17T10:56:55.489Z,60.1
2017-10-17T10:57:57.332Z,60.1
2017-10-17T10:58:59.499Z,60.1
2017-10-17T11:00:01.323Z,60.1
2017-10-17T11:01:03.494Z,60.1
2017-10-17T11:02:04.956Z,60
2017-10-17T11:03:06.821Z,60.2
2017-10-17T11:04:08.638Z,60.1
2017-10-17T11:05:10.462Z,60.1
2017-10-17T11:06:12.287Z,60.2
2017-10-17T11:07:14.458Z,60.1
2017-10-17T11:08:15.942Z,60.1
2017-10-17T11:09:16.704Z,60.1
2017-10-17T11:10:18.526Z,60.1
2017-10-17T11:11:20.354Z,60
2017-10-17T11:12:22.520Z,60.3
2017-10-17T11:13:24.347Z,59.9
2017-10-17T11:14:26.169Z,59.9
2017-10-17T11:15:27.646Z,60
2017-10-17T11:16:29.471Z,59.9
2017-10-17T11:17:31.639Z,59.9
2017-10-17T11:18:33.464Z,60.1
2017-10-17T11:19:35.635Z,59.9
2017-10-17T11:20:37.822Z,59.9
2017-10-17T11:21:39.644Z,59.9
2017-10-17T11:22:41.464Z,60.1
2017-10-17T11:23:43.668Z,59.9
2017-10-17T11:24:45.902Z,60
2017-10-17T11:25:47.380Z,60
2017-10-17T11:26:49.545Z,60.1
2017-10-17T11:27:50.661Z,60
2017-10-17T11:28:52.858Z,60.1
2017-10-17T11:29:54.678Z,60.1
2017-10-17T11:30:56.135Z,60.1
2017-10-17T11:31:57.592Z,60.1
2017-10-17T11:32:58.357Z,60.1
2017-10-17T11:34:00.529Z,60.2
2017-10-17T11:35:02.350Z,59.8
2017-10-17T11:36:04.176Z,59.8
2017-10-17T11:37:06.335Z,59.7
2017-10-17T11:38:08.171Z,59.9
2017-10-17T11:39:10.057Z,59.9
2017-10-17T11:40:11.650Z,59.8
2017-10-17T11:41:13.176Z,59.9
2017-10-17T11:42:14.999Z,59.9
2017-10-17T11:43:16.796Z,60
2017-10-17T11:44:18.962Z,59.9
2017-10-17T11:45:20.783Z,59.8
2017-10-17T11:46:22.241Z,59.8
2017-10-17T11:47:24.457Z,59.9
2017-10-17T11:48:26.261Z,59.8
2017-10-17T11:49:27.719Z,60
2017-10-17T11:50:29.533Z,59.9
2017-10-17T11:51:31.377Z,59.6
2017-10-17T11:52:33.188Z,59.6
2017-10-17T11:53:35.350Z,59.8
2017-10-17T11:54:37.152Z,59.7
2017-10-17T11:55:38.984Z,59.7
2017-10-17T11:56:41.173Z,59.7
2017-10-17T11:57:43.047Z,60
2017-10-17T11:58:44.510Z,59.9
2017-10-17T11:59:46.332Z,59.7
2017-10-17T12:00:48.494Z,59.8
2017-10-17T12:01:50.660Z,59.8
2017-10-17T12:02:52.820Z,59.7
2017-10-17T12:03:54.645Z,59.7
2017-10-17T12:04:56.808Z,59.8
2017-10-17T12:05:58.627Z,59.8
2017-10-17T12:06:59.742Z,59.8
2017-10-17T12:08:01.570Z,59.7
2017-10-17T12:09:03.725Z,59.9
2017-10-17T12:10:05.891Z,59.7
2017-10-17T12:11:07.345Z,59.7
2017-10-17T12:12:09.170Z,59.8
2017-10-17T12:13:10.996Z,59.7
2017-10-17T12:14:12.810Z,59.8
2017-10-17T12:15:14.977Z,59.7
2017-10-17T12:16:16.795Z,59.6
2017-10-17T12:17:18.616Z,59.6
2017-10-17T12:18:20.781Z,59.7
2017-10-17T12:19:22.947Z,59.7
2017-10-17T12:20:24.056Z,59.6
2017-10-17T12:21:26.220Z,59.9
2017-10-17T12:22:28.039Z,59.7
2017-10-17T12:23:30.204Z,59.7
2017-10-17T12:24:32.022Z,59.7
2017-10-17T12:25:33.500Z,59.8
2017-10-17T12:26:35.664Z,59.8
2017-10-17T12:27:37.139Z,60
2017-10-17T12:28:39.303Z,59.8
2017-10-17T12:29:41.466Z,59.7
2017-10-17T12:30:43.630Z,59.7
2017-10-17T12:31:45.797Z,59.7
2017-10-17T12:32:47.658Z,59.7
2017-10-17T12:33:48.789Z,59.7
2017-10-17T12:34:50.613Z,59.6
2017-10-17T12:35:52.779Z,59.7
2017-10-17T12:36:54.263Z,59.7
2017-10-17T12:37:55.735Z,59.8
2017-10-17T12:38:57.559Z,59.7
2017-10-17T12:39:59.009Z,59.8
2017-10-17T12:41:00.811Z,59.7
2017-10-17T12:42:02.627Z,59.7
2017-10-17T12:43:04.454Z,59.7
2017-10-17T12:44:06.276Z,59.7
2017-10-17T12:45:08.098Z,59.8
2017-10-17T12:46:10.259Z,59.8
2017-10-17T12:47:12.080Z,60.1
2017-10-17T12:48:13.900Z,59.7
2017-10-17T12:49:15.403Z,59.7
2017-10-17T12:50:17.209Z,59.8
2017-10-17T12:51:19.021Z,59.8
2017-10-17T12:52:20.841Z,59.8
2017-10-17T12:53:23.003Z,59.8
2017-10-17T12:54:24.471Z,59.8
2017-10-17T12:55:25.917Z,59.8
2017-10-17T12:56:27.390Z,59.8
2017-10-17T12:57:29.192Z,59.8
2017-10-17T12:58:31.358Z,59.8
2017-10-17T12:59:32.832Z,59.8
2017-10-17T13:00:34.664Z,59.8
2017-10-17T13:01:36.822Z,59.9
2017-10-17T13:02:38.296Z,59.9
2017-10-17T13:03:39.415Z,59.8
2017-10-17T13:04:41.209Z,59.8
2017-10-17T13:05:43.375Z,59.8
2017-10-17T13:06:45.542Z,59.9
2017-10-17T13:07:47.073Z,59.9
2017-10-17T13:08:48.525Z,59.9
2017-10-17T13:09:50.345Z,59.9
2017-10-17T13:10:52.171Z,59.9
2017-10-17T13:11:54.007Z,59.9
2017-10-17T13:12:55.828Z,59.9
2017-10-17T13:13:57.302Z,59.9
2017-10-17T13:14:58.760Z,59.9
2017-10-17T13:16:00.244Z,59.9
2017-10-17T13:17:02.062Z,59.8
2017-10-17T13:18:03.520Z,59.9
2017-10-17T13:19:04.631Z,59.9
2017-10-17T13:20:05.741Z,59.9
2017-10-17T13:21:07.217Z,60
2017-10-17T13:22:09.394Z,59.9
2017-10-17T13:23:10.882Z,59.9
2017-10-17T13:24:13.049Z,59.9
2017-10-17T13:25:14.877Z,59.9
2017-10-17T13:26:17.035Z,60
2017-10-17T13:27:19.199Z,59.9
2017-10-17T13:28:21.021Z,60
2017-10-17T13:29:22.841Z,60.1
2017-10-17T13:30:24.660Z,60
2017-10-17T13:31:26.114Z,60
2017-10-17T13:32:27.988Z,59.9
2017-10-17T13:33:29.440Z,59.9
2017-10-17T13:34:31.608Z,60.1
2017-10-17T13:35:33.439Z,59.9
2017-10-17T13:36:35.601Z,59.8
2017-10-17T13:37:37.404Z,60
2017-10-17T13:38:38.883Z,59.4
2017-10-17T13:39:40.356Z,59.5
2017-10-17T13:40:42.177Z,59.9
2017-10-17T13:41:43.996Z,59.9
2017-10-17T13:42:45.966Z,59.8
2017-10-17T13:43:47.080Z,59.5
2017-10-17T13:44:48.907Z,59.9
2017-10-17T13:45:50.385Z,59.7
2017-10-17T13:46:52.196Z,59.7
2017-10-17T13:47:54.361Z,59.4